Time;durP1;ratioP1;P1;durP2;ratioP2;P2;SDS_P1;SDS_P2;PMS_P1;PMS_P2;Temp;Humidity;BMP_temperature;BMP_pressure;BME280_temperature;BME280_humidity;BME280_pressure;Samples;Min_cycle;Max_cycle;Signal;HPM_P1;HPM_P2
2023/06/17 06:43:42;;;;;;;;;11.75;9.75;;;;;;;;5019142;27;13397;-70
2023/06/17 06:46:08;;;;;;;;;9.00;8.50;;;;;;;;4987848;28;10907;-67
2023/06/17 06:48:33;;;;;;;;;11.50;11.50;;;;;;;;5011591;28;8813;-67
2023/06/17 06:50:58;;;;;;;;;11.00;9.25;;;;;;;;5007048;28;8849;-71
2023/06/17 06:53:24;;;;;;;;;11.75;8.00;;;;;;;;5007034;28;8820;-70
2023/06/17 06:55:49;;;;;;;;;10.75;8.50;;;;;;;;5021557;23;9659;-73
2023/06/17 06:58:15;;;;;;;;;14.75;10.25;;;;;;;;5006739;28;8827;-71
2023/06/17 07:00:40;;;;;;;;;15.00;12.25;;;;;;;;5006203;28;8865;-73
2023/06/17 07:03:05;;;;;;;;;10.50;10.50;;;;;;;;5000145;28;8839;-72
2023/06/17 07:05:31;;;;;;;;;10.25;10.25;;;;;;;;4989637;28;9520;-72
2023/06/17 07:07:56;;;;;;;;;13.25;10.50;;;;;;;;4993369;28;8819;-72
2023/06/17 07:10:21;;;;;;;;;9.75;8.75;;;;;;;;4970756;28;10958;-75
2023/06/17 07:12:47;;;;;;;;;9.00;9.00;;;;;;;;5013877;28;8916;-73
2023/06/17 07:15:12;;;;;;;;;10.50;9.00;;;;;;;;5006223;28;8799;-72
2023/06/17 07:17:38;;;;;;;;;11.25;11.25;;;;;;;;5005872;28;8813;-74
2023/06/17 07:20:05;;;;;;;;;9.50;9.00;;;;;;;;5001274;28;9732;-75
2023/06/17 07:22:30;;;;;;;;;7.00;7.00;;;;;;;;4979094;28;10317;-75
2023/06/17 07:24:55;;;;;;;;;8.33;8.33;;;;;;;;5005053;28;9629;-75
2023/06/17 07:27:21;;;;;;;;;13.75;9.50;;;;;;;;5006260;28;8803;-75
2023/06/17 07:29:46;;;;;;;;;12.33;9.33;;;;;;;;5006224;28;8821;-78
2023/06/17 07:32:11;;;;;;;;;9.00;9.00;;;;;;;;5002130;28;8853;-79
2023/06/17 07:34:36;;;;;;;;;9.00;8.00;;;;;;;;5023624;28;8839;-72
2023/06/17 07:37:02;;;;;;;;;6.00;6.00;;;;;;;;5025701;28;8776;-72
2023/06/17 07:39:28;;;;;;;;;11.67;11.00;;;;;;;;5025755;28;8893;-70
2023/06/17 07:41:53;;;;;;;;;11.00;10.67;;;;;;;;5023981;28;8832;-77
2023/06/17 07:44:18;;;;;;;;;9.67;9.00;;;;;;;;5022447;28;8800;-72
2023/06/17 07:46:43;;;;;;;;;8.00;8.00;;;;;;;;5023890;28;8811;-73
2023/06/17 07:49:09;;;;;;;;;9.00;9.00;;;;;;;;5016491;28;8917;-71
2023/06/17 07:51:34;;;;;;;;;11.67;10.00;;;;;;;;5004617;28;8802;-71
2023/06/17 07:54:01;;;;;;;;;9.67;9.67;;;;;;;;4991907;28;8952;-72
2023/06/17 07:56:27;;;;;;;;;13.00;11.25;;;;;;;;4971819;28;8837;-69
2023/06/17 07:58:52;;;;;;;;;12.00;11.75;;;;;;;;4973014;28;8797;-68
2023/06/17 08:01:18;;;;;;;;;12.33;12.00;;;;;;;;4972783;28;9638;-70
2023/06/17 08:03:43;;;;;;;;;12.00;10.33;;;;;;;;4984622;28;8819;-71
2023/06/17 08:06:13;;;;;;;;;12.33;11.00;;;;;;;;4992617;28;9609;-72
2023/06/17 08:08:38;;;;;;;;;10.50;10.50;;;;;;;;4991275;28;8831;-71
2023/06/17 08:11:03;;;;;;;;;11.00;10.67;;;;;;;;4992490;28;8817;-73
2023/06/17 08:13:29;;;;;;;;;10.33;10.33;;;;;;;;4991160;28;9679;-75
2023/06/17 08:15:54;;;;;;;;;10.67;10.00;;;;;;;;4992473;28;8810;-68
2023/06/17 08:18:19;;;;;;;;;11.33;11.00;;;;;;;;4992002;28;8859;-77
2023/06/17 08:20:44;;;;;;;;;12.00;11.67;;;;;;;;4992670;28;8932;-74
2023/06/17 08:23:10;;;;;;;;;13.00;11.33;;;;;;;;4991432;28;8855;-75
2023/06/17 08:25:35;;;;;;;;;10.00;8.00;;;;;;;;4992545;28;8839;-74
2023/06/17 08:28:00;;;;;;;;;8.00;8.00;;;;;;;;4992538;28;8829;-76
2023/06/17 08:30:26;;;;;;;;;9.33;9.00;;;;;;;;4992766;28;8791;-78
2023/06/17 08:32:51;;;;;;;;;8.00;8.00;;;;;;;;4989534;28;8959;-75
2023/06/17 08:35:16;;;;;;;;;8.67;6.67;;;;;;;;4992514;28;8798;-77
2023/06/17 08:37:42;;;;;;;;;6.33;6.33;;;;;;;;4992411;28;9596;-75
2023/06/17 08:40:08;;;;;;;;;7.33;6.00;;;;;;;;4992420;28;9554;-73
2023/06/17 08:42:33;;;;;;;;;8.75;7.50;;;;;;;;4990464;28;8874;-73
2023/06/17 08:45:00;;;;;;;;;7.33;6.33;;;;;;;;4992407;28;8795;-74
2023/06/17 08:47:26;;;;;;;;;8.50;7.75;;;;;;;;4991988;28;8799;-75
2023/06/17 08:49:53;;;;;;;;;7.33;6.00;;;;;;;;4985855;28;8855;-74
2023/06/17 08:52:18;;;;;;;;;9.75;8.75;;;;;;;;4979180;28;11525;-74
2023/06/17 08:54:45;;;;;;;;;8.67;8.00;;;;;;;;4991883;28;8860;-75
2023/06/17 08:57:12;;;;;;;;;9.00;6.50;;;;;;;;4991657;28;8844;-75
2023/06/17 08:59:37;;;;;;;;;8.75;8.00;;;;;;;;4990923;28;8795;-75
2023/06/17 09:02:03;;;;;;;;;6.67;6.67;;;;;;;;4991335;28;8876;-75
2023/06/17 09:04:29;;;;;;;;;8.33;7.00;;;;;;;;4989968;28;8814;-75
2023/06/17 09:06:54;;;;;;;;;9.00;9.00;;;;;;;;4990896;28;8791;-74
2023/06/17 09:09:19;;;;;;;;;7.67;7.33;;;;;;;;4991338;28;12231;-75
2023/06/17 09:11:51;;;;;;;;;7.67;7.67;;;;;;;;4991373;28;8983;-75
2023/06/17 09:14:18;;;;;;;;;8.25;8.00;;;;;;;;4990355;28;8798;-75
2023/06/17 09:16:43;;;;;;;;;8.75;7.25;;;;;;;;4991412;28;9541;-75
2023/06/17 09:19:09;;;;;;;;;10.67;9.33;;;;;;;;4991201;28;8819;-74
2023/06/17 09:21:35;;;;;;;;;8.00;8.00;;;;;;;;4990842;28;8821;-74
2023/06/17 09:24:01;;;;;;;;;19.00;16.75;;;;;;;;4990018;28;9004;-73
2023/06/17 09:26:29;;;;;;;;;8.50;7.75;;;;;;;;4991105;28;8795;-73
2023/06/17 09:29:05;;;;;;;;;10.25;10.00;;;;;;;;4991293;28;8803;-73
2023/06/17 09:31:30;;;;;;;;;9.00;9.00;;;;;;;;4990903;28;8795;-73
2023/06/17 09:33:56;;;;;;;;;10.00;10.00;;;;;;;;4989778;28;9565;-73
2023/06/17 09:36:23;;;;;;;;;24.50;23.00;;;;;;;;4991162;28;8795;-73
2023/06/17 09:38:50;;;;;;;;;13.75;13.00;;;;;;;;4991033;28;8799;-73
2023/06/17 09:41:15;;;;;;;;;10.00;9.75;;;;;;;;4990758;28;8803;-74
2023/06/17 09:43:41;;;;;;;;;9.33;7.67;;;;;;;;4989666;28;8839;-73
2023/06/17 09:46:07;;;;;;;;;11.00;11.00;;;;;;;;4990752;28;8991;-74
2023/06/17 09:48:33;;;;;;;;;10.00;10.00;;;;;;;;4990948;28;8815;-73
2023/06/17 09:50:59;;;;;;;;;15.25;10.75;;;;;;;;4990540;28;8817;-75
2023/06/17 09:53:27;;;;;;;;;11.33;11.00;;;;;;;;4988547;28;8839;-73
2023/06/17 09:55:55;;;;;;;;;8.50;8.50;;;;;;;;4990526;28;8821;-74
2023/06/17 09:58:22;;;;;;;;;9.50;9.00;;;;;;;;4940050;28;8831;-73
2023/06/17 10:00:51;;;;;;;;;9.75;9.00;;;;;;;;4990386;28;8837;-75
2023/06/17 10:03:17;;;;;;;;;9.75;9.75;;;;;;;;4988969;28;8856;-75
2023/06/17 10:05:42;;;;;;;;;8.33;8.00;;;;;;;;4990435;28;8909;-75
2023/06/17 10:08:08;;;;;;;;;10.33;9.00;;;;;;;;4990257;28;8814;-74
2023/06/17 10:10:33;;;;;;;;;9.67;7.67;;;;;;;;4990382;28;8917;-75
2023/06/17 10:13:00;;;;;;;;;9.00;9.00;;;;;;;;4989116;28;8842;-71
2023/06/17 10:15:26;;;;;;;;;8.00;8.00;;;;;;;;4990208;28;9491;-72
2023/06/17 10:17:53;;;;;;;;;10.33;10.00;;;;;;;;4990036;28;8799;-72
2023/06/17 10:20:21;;;;;;;;;10.75;10.75;;;;;;;;4990246;28;8819;-73
2023/06/17 10:22:47;;;;;;;;;9.50;9.50;;;;;;;;4991114;28;8844;-72
2023/06/17 10:25:14;;;;;;;;;9.75;9.25;;;;;;;;4983584;28;8945;-74
2023/06/17 10:27:42;;;;;;;;;9.75;9.75;;;;;;;;4989557;28;8811;-69
2023/06/17 10:30:35;;;;;;;;;11.25;9.75;;;;;;;;4988772;28;8803;-69
2023/06/17 10:33:01;;;;;;;;;8.75;8.75;;;;;;;;4987040;28;8835;-70
2023/06/17 10:35:40;;;;;;;;;11.25;9.75;;;;;;;;4987424;28;8799;-69
2023/06/17 10:38:07;;;;;;;;;11.75;10.00;;;;;;;;4987086;28;8835;-69
2023/06/17 10:40:36;;;;;;;;;13.50;12.75;;;;;;;;5003114;28;8837;-69
2023/06/17 10:43:01;;;;;;;;;2.00;0.00;;;;;;;;4989103;28;8875;-69
2023/06/17 10:45:44;;;;;;;;;8.67;8.67;;;;;;;;4989987;28;8791;-67
2023/06/17 10:48:13;;;;;;;;;11.00;9.00;;;;;;;;4990228;28;8787;-69
2023/06/17 10:50:39;;;;;;;;;13.00;11.75;;;;;;;;4990289;28;8783;-68
2023/06/17 10:53:05;;;;;;;;;8.67;8.67;;;;;;;;4989354;28;9588;-66
2023/06/17 10:55:30;;;;;;;;;9.75;9.75;;;;;;;;4990131;28;8851;-67
2023/06/17 10:57:57;;;;;;;;;8.00;8.00;;;;;;;;4988149;28;9092;-68
2023/06/17 11:00:23;;;;;;;;;11.00;10.00;;;;;;;;4989605;28;8810;-68
2023/06/17 11:02:48;;;;;;;;;11.33;11.33;;;;;;;;4989722;28;8819;-67
2023/06/17 11:05:15;;;;;;;;;12.00;12.00;;;;;;;;4987676;28;8802;-68
2023/06/17 11:07:40;;;;;;;;;12.50;11.75;;;;;;;;4987674;28;8945;-70
2023/06/17 11:10:06;;;;;;;;;13.67;13.67;;;;;;;;4988194;28;8921;-68
2023/06/17 11:12:34;;;;;;;;;6.33;4.33;;;;;;;;4987514;28;8865;-68
2023/06/17 11:15:02;;;;;;;;;12.50;11.50;;;;;;;;4987753;28;8803;-67
2023/06/17 11:17:28;;;;;;;;;16.00;12.00;;;;;;;;4987030;28;8814;-68
2023/06/17 11:19:53;;;;;;;;;12.00;11.67;;;;;;;;4987321;28;8905;-68
2023/06/17 11:22:18;;;;;;;;;12.33;11.00;;;;;;;;4987191;28;8818;-68
2023/06/17 11:24:44;;;;;;;;;7.00;6.33;;;;;;;;4988554;28;8865;-69
2023/06/17 11:27:10;;;;;;;;;13.67;13.33;;;;;;;;4989110;28;8795;-67
2023/06/17 11:29:39;;;;;;;;;10.50;10.50;;;;;;;;4991575;28;8799;-71
2023/06/17 11:32:05;;;;;;;;;8.75;8.00;;;;;;;;4992941;28;8826;-71
2023/06/17 11:34:33;;;;;;;;;10.67;10.00;;;;;;;;4992986;28;8831;-71
2023/06/17 11:37:00;;;;;;;;;11.75;11.25;;;;;;;;4991044;28;8799;-71
2023/06/17 11:39:29;;;;;;;;;13.50;12.25;;;;;;;;4991261;28;8846;-71
2023/06/17 11:42:01;;;;;;;;;9.25;9.25;;;;;;;;4992410;28;8814;-72
2023/06/17 11:44:28;;;;;;;;;10.50;10.00;;;;;;;;4991113;28;8834;-70
2023/06/17 11:46:54;;;;;;;;;12.50;11.25;;;;;;;;4992725;28;8799;-72
2023/06/17 11:49:24;;;;;;;;;15.75;13.50;;;;;;;;4989908;28;8798;-70
2023/06/17 11:51:49;;;;;;;;;10.00;10.00;;;;;;;;4991957;28;8979;-71
2023/06/17 11:54:16;;;;;;;;;10.00;9.33;;;;;;;;4992187;28;8819;-70
2023/06/17 11:56:42;;;;;;;;;15.00;12.50;;;;;;;;4992180;28;8909;-70
2023/06/17 11:59:07;;;;;;;;;11.33;11.33;;;;;;;;4992447;28;8997;-70
2023/06/17 12:01:33;;;;;;;;;11.00;11.00;;;;;;;;4992189;28;8791;-70
2023/06/17 12:03:58;;;;;;;;;13.00;11.67;;;;;;;;4989731;28;8881;-70
2023/06/17 12:06:24;;;;;;;;;12.67;12.00;;;;;;;;4992327;28;9644;-70
2023/06/17 12:08:56;;;;;;;;;12.33;12.00;;;;;;;;4990682;28;8815;-69
2023/06/17 12:11:25;;;;;;;;;11.25;9.75;;;;;;;;4988376;28;8869;-70
2023/06/17 12:13:50;;;;;;;;;9.25;8.00;;;;;;;;4992277;28;8847;-66
2023/06/17 12:16:30;;;;;;;;;9.67;9.67;;;;;;;;4992306;28;8839;-66
2023/06/17 12:18:56;;;;;;;;;11.00;10.75;;;;;;;;4992156;28;8849;-68
2023/06/17 12:21:21;;;;;;;;;9.00;8.33;;;;;;;;4991619;28;8850;-69
2023/06/17 12:23:51;;;;;;;;;9.67;9.67;;;;;;;;4991926;28;9570;-68
2023/06/17 12:26:20;;;;;;;;;12.25;12.00;;;;;;;;4992134;28;8876;-70
2023/06/17 12:28:46;;;;;;;;;12.00;11.50;;;;;;;;4988684;28;8881;-70
2023/06/17 12:31:14;;;;;;;;;13.33;11.33;;;;;;;;4992027;28;8819;-70
2023/06/17 12:33:39;;;;;;;;;12.50;10.50;;;;;;;;4992040;28;8924;-71
2023/06/17 12:36:06;;;;;;;;;12.00;11.00;;;;;;;;4991852;28;8807;-70
2023/06/17 12:38:32;;;;;;;;;6.25;6.25;;;;;;;;4991415;28;8806;-68
2023/06/17 12:40:59;;;;;;;;;7.67;7.33;;;;;;;;4991943;28;8928;-68
2023/06/17 12:43:24;;;;;;;;;4.75;4.50;;;;;;;;4990824;28;8841;-68
2023/06/17 12:45:50;;;;;;;;;10.67;8.33;;;;;;;;4990328;28;9149;-68
2023/06/17 12:48:15;;;;;;;;;13.67;12.67;;;;;;;;4991772;28;8819;-68
2023/06/17 12:50:41;;;;;;;;;9.67;9.00;;;;;;;;4991705;28;8838;-68
2023/06/17 12:53:06;;;;;;;;;10.00;10.00;;;;;;;;4991488;28;8877;-68
2023/06/17 12:55:31;;;;;;;;;8.33;7.00;;;;;;;;4991787;28;8930;-67
2023/06/17 12:57:58;;;;;;;;;11.67;11.00;;;;;;;;4990818;28;8869;-68
2023/06/17 13:00:24;;;;;;;;;10.50;9.75;;;;;;;;4991059;28;8897;-69
2023/06/17 13:02:49;;;;;;;;;10.67;9.00;;;;;;;;4991073;28;8827;-68
2023/06/17 13:05:15;;;;;;;;;8.00;8.00;;;;;;;;4991086;28;8815;-68
2023/06/17 13:07:41;;;;;;;;;9.67;9.67;;;;;;;;4990787;28;8961;-68
2023/06/17 13:10:07;;;;;;;;;11.50;10.25;;;;;;;;4990157;28;8853;-69
2023/06/17 13:12:33;;;;;;;;;8.67;7.67;;;;;;;;4990606;28;8838;-68
2023/06/17 13:14:59;;;;;;;;;10.33;8.67;;;;;;;;4990529;28;8941;-68
2023/06/17 13:17:24;;;;;;;;;8.75;8.00;;;;;;;;4990624;28;8787;-68
2023/06/17 13:19:50;;;;;;;;;10.00;10.00;;;;;;;;4989655;28;8853;-71
2023/06/17 13:22:15;;;;;;;;;10.67;10.67;;;;;;;;4989473;28;8896;-72
2023/06/17 13:24:40;;;;;;;;;9.00;9.00;;;;;;;;4991152;28;8912;-72
2023/06/17 13:27:06;;;;;;;;;9.33;9.00;;;;;;;;4990756;28;9530;-71
2023/06/17 13:29:32;;;;;;;;;11.33;11.00;;;;;;;;4987581;28;8853;-72
2023/06/17 13:31:57;;;;;;;;;14.00;10.67;;;;;;;;4990460;28;8846;-73
2023/06/17 13:34:23;;;;;;;;;9.00;9.00;;;;;;;;4990107;28;9012;-73
2023/06/17 13:36:48;;;;;;;;;17.00;14.67;;;;;;;;4990203;28;8838;-74
2023/06/17 13:39:13;;;;;;;;;22.67;17.67;;;;;;;;4990560;28;8838;-73
2023/06/17 13:41:39;;;;;;;;;15.67;13.67;;;;;;;;4989731;28;8924;-72
2023/06/17 13:44:05;;;;;;;;;9.00;9.00;;;;;;;;4989867;28;8908;-72
2023/06/17 13:46:30;;;;;;;;;13.25;13.25;;;;;;;;4990216;28;8952;-72
2023/06/17 13:48:56;;;;;;;;;8.33;8.33;;;;;;;;4990434;28;8819;-72
2023/06/17 13:51:21;;;;;;;;;10.67;10.00;;;;;;;;4989131;28;8831;-83
2023/06/17 13:53:46;;;;;;;;;10.00;10.00;;;;;;;;4990234;28;8866;-73
2023/06/17 13:56:12;;;;;;;;;11.00;11.00;;;;;;;;4990245;28;8850;-73
2023/06/17 13:58:38;;;;;;;;;12.67;11.00;;;;;;;;4988559;28;8888;-73
2023/06/17 14:01:03;;;;;;;;;10.00;10.00;;;;;;;;4987926;28;8857;-74
2023/06/17 14:03:29;;;;;;;;;10.00;10.00;;;;;;;;4990016;28;11597;-74
2023/06/17 14:05:54;;;;;;;;;10.67;8.67;;;;;;;;4989774;28;8835;-74
2023/06/17 14:08:20;;;;;;;;;10.00;10.00;;;;;;;;4989692;28;9855;-74
2023/06/17 14:10:45;;;;;;;;;10.33;10.33;;;;;;;;4989855;28;8866;-73
2023/06/17 14:13:11;;;;;;;;;11.33;11.00;;;;;;;;4990078;28;8843;-73
2023/06/17 14:15:37;;;;;;;;;10.25;10.00;;;;;;;;4989816;28;8926;-73
2023/06/17 14:18:02;;;;;;;;;78.25;59.50;;;;;;;;4989460;28;8945;-75
2023/06/17 14:20:28;;;;;;;;;124.33;100.33;;;;;;;;4989701;28;8845;-76
2023/06/17 14:22:58;;;;;;;;;30.67;25.67;;;;;;;;4989800;28;8830;-75
2023/06/17 14:25:24;;;;;;;;;54.75;40.75;;;;;;;;4989991;28;8810;-83
2023/06/17 14:27:50;;;;;;;;;43.50;35.50;;;;;;;;4989881;28;11400;-78
2023/06/17 14:30:15;;;;;;;;;34.33;28.00;;;;;;;;4990189;28;9660;-73
2023/06/17 14:32:42;;;;;;;;;30.33;24.67;;;;;;;;4989630;28;9200;-76
2023/06/17 14:35:08;;;;;;;;;22.25;20.00;;;;;;;;4990181;28;8909;-76
2023/06/17 14:37:33;;;;;;;;;9.75;9.00;;;;;;;;4990219;28;8813;-72
2023/06/17 14:39:59;;;;;;;;;22.00;15.00;;;;;;;;4989934;28;8799;-73
2023/06/17 14:42:24;;;;;;;;;15.00;11.67;;;;;;;;4989673;28;8806;-71
2023/06/17 14:44:49;;;;;;;;;15.00;13.67;;;;;;;;4989903;28;8779;-72
2023/06/17 14:47:15;;;;;;;;;15.67;13.67;;;;;;;;4989652;28;8892;-72
2023/06/17 14:49:40;;;;;;;;;10.33;10.33;;;;;;;;4989682;28;9605;-71
2023/06/17 14:52:06;;;;;;;;;12.00;12.00;;;;;;;;4989169;28;8848;-72
2023/06/17 14:54:31;;;;;;;;;8.33;8.00;;;;;;;;4989949;28;8850;-72
2023/06/17 14:56:57;;;;;;;;;9.00;9.00;;;;;;;;4988520;28;8807;-72
2023/06/17 14:59:22;;;;;;;;;10.00;9.00;;;;;;;;4989613;28;8957;-72
2023/06/17 15:01:48;;;;;;;;;12.00;11.00;;;;;;;;4989317;28;8791;-72
2023/06/17 15:04:13;;;;;;;;;10.00;9.00;;;;;;;;4991303;28;8866;-71
2023/06/17 15:06:38;;;;;;;;;10.00;10.00;;;;;;;;4993433;28;8802;-73
2023/06/17 15:09:24;;;;;;;;;12.00;11.67;;;;;;;;4992634;28;8898;-72
2023/06/17 15:11:49;;;;;;;;;10.75;10.00;;;;;;;;4993509;28;8897;-72
2023/06/17 15:14:15;;;;;;;;;10.33;9.00;;;;;;;;4993393;28;8799;-72
2023/06/17 15:16:40;;;;;;;;;12.00;10.00;;;;;;;;4993396;28;8865;-72
2023/06/17 15:19:07;;;;;;;;;11.67;10.33;;;;;;;;4993261;28;8811;-72
2023/06/17 15:21:32;;;;;;;;;8.50;8.50;;;;;;;;4993444;28;8787;-71
2023/06/17 15:23:57;;;;;;;;;12.33;10.67;;;;;;;;4992019;28;8838;-71
2023/06/17 15:26:23;;;;;;;;;11.33;11.33;;;;;;;;4993052;28;8806;-71
2023/06/17 15:28:48;;;;;;;;;10.33;10.33;;;;;;;;4992687;28;8802;-72
2023/06/17 15:31:13;;;;;;;;;10.00;9.67;;;;;;;;4993118;28;8811;-72
2023/06/17 15:33:39;;;;;;;;;10.00;9.67;;;;;;;;4993028;28;8834;-72
2023/06/17 15:36:04;;;;;;;;;9.00;9.00;;;;;;;;4993123;28;8790;-72
2023/06/17 15:38:29;;;;;;;;;8.00;8.00;;;;;;;;4993151;28;8815;-72
2023/06/17 15:40:55;;;;;;;;;12.67;10.00;;;;;;;;4993136;28;8807;-72
2023/06/17 15:43:20;;;;;;;;;10.00;9.00;;;;;;;;4992534;28;8865;-72
2023/06/17 15:45:45;;;;;;;;;9.00;9.00;;;;;;;;4992363;28;8814;-72
2023/06/17 15:48:10;;;;;;;;;9.33;9.33;;;;;;;;4992641;28;8858;-72
2023/06/17 15:50:36;;;;;;;;;9.67;8.67;;;;;;;;4992673;28;8896;-73
2023/06/17 15:53:01;;;;;;;;;10.33;10.00;;;;;;;;4992731;28;8826;-71
2023/06/17 15:55:27;;;;;;;;;9.33;8.00;;;;;;;;4993191;28;8984;-72
2023/06/17 15:57:52;;;;;;;;;11.00;10.00;;;;;;;;4992400;28;8893;-72
2023/06/17 16:00:17;;;;;;;;;8.00;8.00;;;;;;;;4992466;28;8806;-72
2023/06/17 16:02:43;;;;;;;;;8.00;8.00;;;;;;;;4992104;28;8814;-72
2023/06/17 16:05:08;;;;;;;;;9.33;9.00;;;;;;;;4992575;28;8821;-73
2023/06/17 16:07:33;;;;;;;;;10.67;10.67;;;;;;;;4992533;28;8791;-73
2023/06/17 16:09:59;;;;;;;;;10.00;9.67;;;;;;;;4992502;28;8794;-73
2023/06/17 16:12:24;;;;;;;;;11.00;10.00;;;;;;;;4992071;28;8862;-73
2023/06/17 16:14:49;;;;;;;;;7.00;7.00;;;;;;;;4991897;28;8823;-73
2023/06/17 16:17:15;;;;;;;;;12.33;11.33;;;;;;;;4992302;28;8841;-73
2023/06/17 16:19:40;;;;;;;;;12.67;11.00;;;;;;;;4992393;28;8881;-73
2023/06/17 16:22:09;;;;;;;;;12.00;8.33;;;;;;;;4992020;28;8830;-72
2023/06/17 16:24:35;;;;;;;;;12.33;10.33;;;;;;;;4992052;28;8807;-72
